createdAt,value
2022-11-19T00:01:54.518Z,100694.16
2022-11-19T00:04:27.421Z,100695.69
2022-11-19T00:07:03.115Z,100702.81
2022-11-19T00:09:37.377Z,100707.94
2022-11-19T00:12:30.527Z,100699.25
2022-11-19T00:15:03.660Z,100700.00
2022-11-19T00:17:37.018Z,100707.75
2022-11-19T00:20:10.587Z,100704.63
2022-11-19T00:22:45.517Z,100706.25
2022-11-19T00:25:18.401Z,100710.91
2022-11-19T00:27:51.356Z,100703.91
2022-11-19T00:30:47.031Z,100711.03
2022-11-19T00:33:17.220Z,100700.03
2022-11-19T00:35:50.318Z,100706.25
2022-11-19T00:38:24.745Z,100703.13
2022-11-19T00:40:57.878Z,100711.28
2022-11-19T00:43:49.888Z,100708.34
2022-11-19T00:46:25.365Z,100717.88
2022-11-19T00:49:00.490Z,100717.13
2022-11-19T00:51:33.258Z,100721.03
2022-11-19T00:54:08.010Z,100721.75
2022-11-19T00:56:41.081Z,100715.41
2022-11-19T00:59:16.579Z,100729.09
2022-11-19T01:01:49.938Z,100721.59
2022-11-19T01:04:22.992Z,100740.41
2022-11-19T01:06:56.299Z,100739.28
2022-11-19T01:09:31.561Z,100737.34
2022-11-19T01:12:04.721Z,100737.28
2022-11-19T01:14:40.248Z,100741.16
2022-11-19T01:17:15.088Z,100746.75
2022-11-19T01:19:48.147Z,100750.22
2022-11-19T01:22:21.056Z,100760.41
2022-11-19T01:24:55.490Z,100752.97
2022-11-19T01:27:28.382Z,100751.69
2022-11-19T01:30:01.594Z,100766.88
2022-11-19T01:32:34.832Z,100757.78
2022-11-19T01:35:08.784Z,100765.28
2022-11-19T01:37:41.982Z,100763.69
2022-11-19T01:40:16.835Z,100764.44
2022-11-19T01:42:53.928Z,100767.50
2022-11-19T01:45:31.914Z,100767.56
2022-11-19T01:48:09.828Z,100764.31
2022-11-19T01:50:45.988Z,100770.59
2022-11-19T01:53:21.703Z,100762.78
2022-11-19T01:55:57.426Z,100768.97
2022-11-19T01:58:31.774Z,100770.13
2022-11-19T02:01:05.649Z,100775.13
2022-11-19T02:03:39.828Z,100766.38
2022-11-19T02:06:13.711Z,100774.75
2022-11-19T02:08:50.134Z,100774.72
2022-11-19T02:11:39.031Z,100776.63
2022-11-19T02:14:42.888Z,100788.09
2022-11-19T02:17:21.418Z,100780.59
2022-11-19T02:20:22.101Z,100786.06
2022-11-19T02:23:18.810Z,100792.94
2022-11-19T02:26:24.668Z,100803.75
2022-11-19T02:29:09.519Z,100798.00
2022-11-19T02:31:52.836Z,100799.38
2022-11-19T02:34:30.384Z,100812.78
2022-11-19T02:37:10.241Z,100806.00
2022-11-19T02:39:49.169Z,100809.16
2022-11-19T02:42:29.376Z,100811.47
2022-11-19T02:45:11.276Z,100813.88
2022-11-19T02:47:50.071Z,100811.50
2022-11-19T02:50:26.668Z,100812.25
2022-11-19T02:53:04.621Z,100820.78
2022-11-19T02:55:40.574Z,100818.56
2022-11-19T02:58:37.908Z,100820.13
2022-11-19T03:01:28.477Z,100824.69
2022-11-19T03:04:20.596Z,100823.56
2022-11-19T03:06:54.779Z,100821.41
2022-11-19T03:09:28.714Z,100826.13
2022-11-19T03:12:10.298Z,100826.66
2022-11-19T03:15:13.671Z,100830.47
2022-11-19T03:18:01.520Z,100837.66
2022-11-19T03:20:40.702Z,100833.38
2022-11-19T03:23:21.153Z,100829.13
2022-11-19T03:25:58.913Z,100828.22
2022-11-19T03:28:37.094Z,100836.50
2022-11-19T03:31:11.912Z,100830.53
2022-11-19T03:33:48.871Z,100831.50
2022-11-19T03:36:28.610Z,100837.38
2022-11-19T03:39:05.653Z,100832.78
2022-11-19T03:41:41.952Z,100843.88
2022-11-19T03:44:19.413Z,100850.03
2022-11-19T03:46:55.791Z,100840.88
2022-11-19T03:49:36.116Z,100846.84
2022-11-19T03:52:13.183Z,100846.84
2022-11-19T03:54:46.950Z,100851.97
2022-11-19T03:57:22.136Z,100849.16
2022-11-19T03:59:54.976Z,100856.22
2022-11-19T04:02:27.809Z,100860.09
2022-11-19T04:05:00.680Z,100870.34
2022-11-19T04:07:34.980Z,100869.66
2022-11-19T04:10:08.442Z,100877.28
2022-11-19T04:12:41.228Z,100874.84
2022-11-19T04:15:15.549Z,100873.31
2022-11-19T04:17:48.404Z,100875.63
2022-11-19T04:20:21.323Z,100877.16
2022-11-19T04:22:55.560Z,100879.34
2022-11-19T04:25:28.595Z,100885.66
2022-11-19T04:28:02.243Z,100887.97
2022-11-19T04:30:34.970Z,100896.41
2022-11-19T04:33:08.013Z,100904.97
2022-11-19T04:35:40.638Z,100900.97
2022-11-19T04:38:14.811Z,100903.34
2022-11-19T04:40:48.868Z,100907.38
2022-11-19T04:43:22.178Z,100907.72
2022-11-19T04:45:55.411Z,100911.31
2022-11-19T04:48:28.468Z,100916.72
2022-11-19T04:51:01.681Z,100923.34
2022-11-19T04:53:36.056Z,100925.63
2022-11-19T04:56:09.014Z,100920.09
2022-11-19T04:58:41.979Z,100923.06
2022-11-19T05:01:14.615Z,100927.16
2022-11-19T05:03:48.714Z,100926.59
2022-11-19T05:06:21.449Z,100930.03
2022-11-19T05:08:55.614Z,100922.97
2022-11-19T05:11:28.320Z,100925.00
2022-11-19T05:14:01.232Z,100930.19
2022-11-19T05:16:34.479Z,100927.06
2022-11-19T05:19:07.510Z,100931.19
2022-11-19T05:21:40.071Z,100939.69
2022-11-19T05:24:14.820Z,100943.84
2022-11-19T05:26:47.930Z,100936.38
2022-11-19T05:29:20.813Z,100948.13
2022-11-19T05:31:53.891Z,100954.94
2022-11-19T05:34:28.631Z,100950.75
2022-11-19T05:37:01.373Z,100963.44
2022-11-19T05:39:36.017Z,100963.44
2022-11-19T05:42:08.745Z,100967.16
2022-11-19T05:44:41.597Z,100967.31
2022-11-19T05:47:16.487Z,100972.34
2022-11-19T05:49:49.365Z,100973.31
2022-11-19T05:52:22.625Z,100974.75
2022-11-19T05:54:57.196Z,100981.72
2022-11-19T05:57:30.559Z,100981.69
2022-11-19T06:00:03.650Z,100981.34
2022-11-19T06:02:49.294Z,100983.19
2022-11-19T06:05:22.162Z,100982.78
2022-11-19T06:07:55.444Z,100984.25
2022-11-19T06:10:33.262Z,100983.75
2022-11-19T06:13:06.354Z,100988.59
2022-11-19T06:15:39.476Z,101000.06
2022-11-19T06:18:13.159Z,100996.00
2022-11-19T06:20:46.058Z,100996.34
2022-11-19T06:23:21.944Z,101003.41
2022-11-19T06:25:57.205Z,101000.84
2022-11-19T06:28:32.794Z,101009.94
2022-11-19T06:31:07.463Z,101013.19
2022-11-19T06:33:40.656Z,101023.25
2022-11-19T06:36:16.234Z,101024.84
2022-11-19T06:38:49.257Z,101026.78
2022-11-19T06:41:23.604Z,101029.16
2022-11-19T06:43:56.471Z,101039.56
2022-11-19T06:46:29.283Z,101044.34
2022-11-19T06:49:03.724Z,101047.13
2022-11-19T06:51:37.759Z,101046.81
2022-11-19T06:54:11.977Z,101043.25
2022-11-19T06:56:47.672Z,101050.34
2022-11-19T06:59:22.661Z,101049.69
2022-11-19T07:01:55.790Z,101047.75
2022-11-19T07:04:29.477Z,101055.16
2022-11-19T07:07:02.864Z,101051.19
2022-11-19T07:09:36.268Z,101051.81
2022-11-19T07:12:11.227Z,101059.56
2022-11-19T07:14:45.576Z,101059.47
2022-11-19T07:17:18.642Z,101064.13
2022-11-19T07:19:52.006Z,101066.69
2022-11-19T07:22:25.355Z,101071.69
2022-11-19T07:24:58.531Z,101072.09
2022-11-19T07:27:34.784Z,101080.81
2022-11-19T07:30:09.923Z,101084.94
2022-11-19T07:32:43.349Z,101098.38
2022-11-19T07:35:16.597Z,101097.00
2022-11-19T07:37:49.384Z,101101.13
2022-11-19T07:40:22.407Z,101098.63
2022-11-19T07:42:55.480Z,101094.31
2022-11-19T07:45:28.271Z,101089.94
2022-11-19T07:48:01.101Z,101097.72
2022-11-19T07:50:33.955Z,101110.94
2022-11-19T07:53:06.893Z,101116.16
2022-11-19T07:55:40.047Z,101106.94
2022-11-19T07:58:14.999Z,101118.69
2022-11-19T08:00:47.713Z,101118.53
2022-11-19T08:03:20.538Z,101128.00
2022-11-19T08:05:53.484Z,101137.66
2022-11-19T08:08:26.147Z,101141.72
2022-11-19T08:10:59.029Z,101136.84
2022-11-19T08:13:33.693Z,101143.78
2022-11-19T08:16:08.787Z,101144.88
2022-11-19T08:18:40.577Z,101148.75
2022-11-19T08:21:13.426Z,101160.00
2022-11-19T08:23:46.273Z,101161.38
2022-11-19T08:26:19.293Z,101158.06
2022-11-19T08:28:54.302Z,101155.56
2022-11-19T08:31:27.652Z,101167.66
2022-11-19T08:34:02.579Z,101166.28
2022-11-19T08:36:35.432Z,101178.78
2022-11-19T08:39:08.738Z,101180.72
2022-11-19T08:41:59.338Z,101177.28
2022-11-19T08:44:33.419Z,101175.13
2022-11-19T08:47:06.434Z,101167.38
2022-11-19T08:49:39.152Z,101166.47
2022-11-19T08:52:11.962Z,101167.50
2022-11-19T08:54:44.894Z,101182.16
2022-11-19T08:57:18.189Z,101173.91
2022-11-19T08:59:52.298Z,101182.66
2022-11-19T09:02:25.116Z,101179.84
2022-11-19T09:04:58.043Z,101181.31
2022-11-19T09:07:30.788Z,101187.25
2022-11-19T09:10:03.621Z,101184.50
2022-11-19T09:12:36.481Z,101187.25
2022-11-19T09:15:12.020Z,101183.91
2022-11-19T09:17:46.989Z,101199.19
2022-11-19T09:20:20.163Z,101185.75
2022-11-19T09:22:52.980Z,101192.53
2022-11-19T09:25:25.909Z,101197.25
2022-11-19T09:27:59.694Z,101198.13
2022-11-19T09:30:33.967Z,101200.41
2022-11-19T09:33:06.692Z,101207.69
2022-11-19T09:35:39.411Z,101215.44
2022-11-19T09:38:12.600Z,101222.03
2022-11-19T09:40:46.860Z,101219.31
2022-11-19T09:43:28.536Z,101222.72
2022-11-19T09:46:11.564Z,101242.75
2022-11-19T09:48:45.674Z,101234.09
2022-11-19T09:51:22.879Z,101238.91
2022-11-19T09:54:01.506Z,101236.84
2022-11-19T09:56:37.218Z,101245.25
2022-11-19T09:59:26.131Z,101245.25
2022-11-19T10:02:00.177Z,101249.91
2022-11-19T10:04:34.456Z,101251.72
2022-11-19T10:07:21.981Z,101248.22
2022-11-19T10:10:12.139Z,101253.78
2022-11-19T10:13:11.666Z,101258.47
2022-11-19T10:16:00.536Z,101254.81
2022-11-19T10:18:45.125Z,101250.06
2022-11-19T10:21:26.161Z,101248.66
2022-11-19T10:24:08.270Z,101244.13
2022-11-19T10:26:42.635Z,101247.53
2022-11-19T10:29:21.105Z,101252.53
2022-11-19T10:31:54.246Z,101248.22
2022-11-19T10:34:29.859Z,101238.66
2022-11-19T10:37:07.378Z,101232.53
2022-11-19T10:39:44.231Z,101239.34
2022-11-19T10:42:22.838Z,101239.13
2022-11-19T10:45:00.286Z,101231.38
2022-11-19T10:47:38.468Z,101236.25
2022-11-19T10:50:19.621Z,101234.56
2022-11-19T10:52:55.278Z,101231.59
2022-11-19T10:55:34.876Z,101237.41
2022-11-19T10:58:13.683Z,101235.94
2022-11-19T11:00:47.111Z,101237.28
2022-11-19T11:03:24.940Z,101245.25
2022-11-19T11:06:05.166Z,101251.19
2022-11-19T11:08:49.363Z,101253.00
2022-11-19T11:11:47.185Z,101252.66
2022-11-19T11:14:42.417Z,101251.28
2022-11-19T11:17:20.772Z,101251.19
2022-11-19T11:20:00.942Z,101247.97
2022-11-19T11:22:36.866Z,101246.41
2022-11-19T11:25:20.870Z,101249.56
2022-11-19T11:28:06.966Z,101239.44
2022-11-19T11:30:52.773Z,101237.06
2022-11-19T11:33:31.834Z,101236.72
2022-11-19T11:36:08.243Z,101243.09
2022-11-19T11:38:45.153Z,101242.63
2022-11-19T11:44:19.736Z,101242.19
2022-11-19T11:46:55.425Z,101253.66
2022-11-19T11:49:31.773Z,101258.09
2022-11-19T11:52:19.338Z,101261.31
2022-11-19T11:54:58.873Z,101258.22
2022-11-19T11:57:33.806Z,101259.03
2022-11-19T12:00:31.116Z,101247.63
2022-11-19T12:03:08.516Z,101248.22
2022-11-19T12:05:51.187Z,101245.03
2022-11-19T12:08:42.156Z,101243.22
2022-11-19T12:11:28.647Z,101234.09
2022-11-19T12:14:11.890Z,101231.72
2022-11-19T12:16:50.129Z,101240.50
2022-11-19T12:19:52.279Z,101227.06
2022-11-19T12:22:42.103Z,101230.59
2022-11-19T12:25:31.662Z,101230.94
2022-11-19T12:31:40.113Z,101231.59
2022-11-19T12:34:39.859Z,101227.28
2022-11-19T12:37:35.609Z,101219.88
2022-11-19T12:40:38.949Z,101220.69
2022-11-19T12:43:45.284Z,101224.78
2022-11-19T12:46:27.876Z,101229.13
2022-11-19T12:49:22.509Z,101237.28
2022-11-19T12:52:04.312Z,101232.53
2022-11-19T12:54:53.511Z,101231.38
2022-11-19T12:57:42.088Z,101237.50
2022-11-19T13:00:21.707Z,101235.47
2022-11-19T13:03:03.731Z,101250.38
2022-11-19T13:05:44.695Z,101242.06
2022-11-19T13:08:23.227Z,101246.41
2022-11-19T13:11:06.510Z,101251.06
2022-11-19T13:13:42.323Z,101247.41
2022-11-19T13:16:19.310Z,101244.22
2022-11-19T13:18:54.919Z,101254.72
2022-11-19T13:21:33.318Z,101250.03
2022-11-19T13:24:18.513Z,101254.81
2022-11-19T13:26:51.944Z,101244.13
2022-11-19T13:29:35.276Z,101242.31
2022-11-19T13:32:18.853Z,101238.69
2022-11-19T13:35:02.637Z,101246.16
2022-11-19T13:37:46.496Z,101233.56
2022-11-19T13:40:24.194Z,101246.84
2022-11-19T13:43:31.517Z,101258.31
2022-11-19T13:46:16.470Z,101250.84
2022-11-19T13:48:57.522Z,101247.31
2022-11-19T13:51:34.061Z,101246.16
2022-11-19T13:54:10.640Z,101238.66
2022-11-19T13:56:48.186Z,101238.75
2022-11-19T13:59:27.595Z,101248.22
2022-11-19T14:02:13.835Z,101256.97
2022-11-19T14:05:02.690Z,101253.88
2022-11-19T14:08:01.172Z,101260.97
2022-11-19T14:10:39.216Z,101259.13
2022-11-19T14:13:35.782Z,101248.75
2022-11-19T14:16:36.546Z,101253.78
2022-11-19T14:19:33.454Z,101256.59
2022-11-19T14:22:52.579Z,101247.31
2022-11-19T14:26:03.389Z,101253.66
2022-11-19T14:28:45.264Z,101249.34
2022-11-19T14:31:20.123Z,101251.16
2022-11-19T14:34:04.250Z,101252.63
2022-11-19T14:36:44.618Z,101254.00
2022-11-19T14:39:26.335Z,101259.69
2022-11-19T14:42:14.988Z,101261.59
2022-11-19T14:45:08.352Z,101267.97
2022-11-19T14:47:42.239Z,101265.03
2022-11-19T14:50:26.988Z,101262.84
2022-11-19T14:53:02.180Z,101276.50
2022-11-19T14:55:40.985Z,101270.50
2022-11-19T14:58:23.283Z,101269.56
2022-11-19T15:01:09.695Z,101268.22
2022-11-19T15:03:49.539Z,101273.97
2022-11-19T15:06:28.217Z,101272.50
2022-11-19T15:09:06.907Z,101272.88
2022-11-19T15:12:05.975Z,101273.66
2022-11-19T15:15:08.281Z,101269.34
2022-11-19T15:17:42.570Z,101266.19
2022-11-19T15:20:27.744Z,101261.41
2022-11-19T15:23:10.073Z,101274.13
2022-11-19T15:26:06.810Z,101276.59
2022-11-19T15:29:12.425Z,101277.97
2022-11-19T15:32:14.862Z,101277.75
2022-11-19T15:35:11.723Z,101264.09
2022-11-19T15:37:55.833Z,101264.91
2022-11-19T15:40:37.180Z,101268.53
2022-11-19T15:43:20.685Z,101271.59
2022-11-19T15:45:56.766Z,101274.44
2022-11-19T15:48:38.293Z,101277.06
2022-11-19T15:51:15.834Z,101279.34
2022-11-19T15:54:05.318Z,101281.47
2022-11-19T15:56:41.072Z,101278.41
2022-11-19T15:59:18.765Z,101278.94
2022-11-19T16:02:15.930Z,101283.41
2022-11-19T16:04:54.238Z,101285.63
2022-11-19T16:07:34.519Z,101283.03
2022-11-19T16:10:20.707Z,101298.13
2022-11-19T16:16:39.435Z,101295.75
2022-11-19T16:19:16.464Z,101310.28
2022-11-19T16:21:54.164Z,101315.44
2022-11-19T16:24:45.951Z,101308.03
2022-11-19T16:27:25.405Z,101310.88
2022-11-19T16:29:59.940Z,101309.97
2022-11-19T16:32:35.487Z,101312.03
2022-11-19T16:35:26.608Z,101311.94
2022-11-19T16:38:01.869Z,101311.69
2022-11-19T16:40:57.793Z,101307.69
2022-11-19T16:43:41.279Z,101310.34
2022-11-19T16:46:24.634Z,101306.56
2022-11-19T16:49:00.632Z,101297.69
2022-11-19T16:51:42.688Z,101295.84
2022-11-19T16:54:49.195Z,101304.13
2022-11-19T16:57:30.327Z,101297.88
2022-11-19T17:00:12.791Z,101305.19
2022-11-19T17:02:46.886Z,101304.28
2022-11-19T17:05:29.946Z,101302.78
2022-11-19T17:08:10.008Z,101305.84
2022-11-19T17:10:43.419Z,101305.59
2022-11-19T17:13:36.882Z,101303.53
2022-11-19T17:16:23.895Z,101304.81
2022-11-19T17:19:16.750Z,101317.16
2022-11-19T17:22:17.574Z,101308.50
2022-11-19T17:24:52.621Z,101308.91
2022-11-19T17:27:39.309Z,101322.03
2022-11-19T17:30:27.256Z,101317.16
2022-11-19T17:33:05.198Z,101313.84
2022-11-19T17:35:45.777Z,101313.03
2022-11-19T17:38:20.790Z,101313.69
2022-11-19T17:40:59.027Z,101317.09
2022-11-19T17:43:54.136Z,101323.94
2022-11-19T17:46:30.353Z,101319.50
2022-11-19T17:49:04.861Z,101327.41
2022-11-19T17:51:38.155Z,101320.69
2022-11-19T17:54:14.619Z,101316.63
2022-11-19T17:56:50.545Z,101317.19
2022-11-19T17:59:28.829Z,101313.97
2022-11-19T18:02:07.583Z,101315.44
2022-11-19T18:04:43.277Z,101312.97
2022-11-19T18:07:25.450Z,101319.69
2022-11-19T18:10:03.405Z,101321.69
2022-11-19T18:12:43.443Z,101318.88
2022-11-19T18:15:21.660Z,101333.38
2022-11-19T18:17:55.481Z,101320.69
2022-11-19T18:20:31.653Z,101324.88
2022-11-19T18:23:06.451Z,101319.56
2022-11-19T18:28:30.664Z,101318.50
2022-11-19T18:31:03.827Z,101317.28
2022-11-19T18:33:42.153Z,101323.00
2022-11-19T18:36:23.342Z,101309.56
2022-11-19T18:39:21.861Z,101302.94
2022-11-19T18:41:57.460Z,101308.50
2022-11-19T18:44:36.093Z,101309.91
2022-11-19T18:47:16.959Z,101308.66
2022-11-19T18:49:53.516Z,101308.78
2022-11-19T18:52:29.335Z,101306.00
2022-11-19T18:55:05.674Z,101316.56
2022-11-19T18:57:43.822Z,101321.22
2022-11-19T19:00:23.757Z,101326.34
2022-11-19T19:02:56.666Z,101328.06
2022-11-19T19:05:29.755Z,101334.31
2022-11-19T19:08:05.283Z,101325.13
2022-11-19T19:10:53.316Z,101328.06
2022-11-19T19:13:26.859Z,101336.03
2022-11-19T19:16:10.882Z,101335.13
2022-11-19T19:18:54.628Z,101337.59
2022-11-19T19:21:28.949Z,101331.91
2022-11-19T19:24:12.674Z,101332.59
2022-11-19T19:26:48.239Z,101341.75
2022-11-19T19:29:21.729Z,101339.88
2022-11-19T19:32:00.587Z,101338.97
2022-11-19T19:34:39.777Z,101336.03
2022-11-19T19:37:17.628Z,101328.81
2022-11-19T19:40:03.585Z,101336.03
2022-11-19T19:42:41.534Z,101333.31
2022-11-19T19:45:19.786Z,101330.91
2022-11-19T19:47:55.455Z,101332.38
2022-11-19T19:50:33.229Z,101338.03
2022-11-19T19:53:11.528Z,101335.31
2022-11-19T19:55:54.796Z,101346.53
2022-11-19T19:58:43.747Z,101341.72
2022-11-19T20:01:25.533Z,101350.22
2022-11-19T20:04:25.014Z,101348.53
2022-11-19T20:07:00.729Z,101343.59
2022-11-19T20:09:40.608Z,101344.22
2022-11-19T20:12:22.180Z,101347.63
2022-11-19T20:14:56.573Z,101350.47
2022-11-19T20:17:32.108Z,101357.84
2022-11-19T20:20:11.047Z,101355.94
2022-11-19T20:22:47.760Z,101355.63
2022-11-19T20:25:20.770Z,101347.50
2022-11-19T20:27:56.582Z,101350.34
2022-11-19T20:30:29.756Z,101349.97
2022-11-19T20:33:07.166Z,101351.94
2022-11-19T20:35:51.764Z,101353.25
2022-11-19T20:38:27.704Z,101355.34
2022-11-19T20:41:02.747Z,101360.00
2022-11-19T20:43:56.166Z,101362.25
2022-11-19T20:46:30.009Z,101358.94
2022-11-19T20:49:02.910Z,101358.78
2022-11-19T20:51:38.037Z,101361.34
2022-11-19T20:54:11.198Z,101355.75
2022-11-19T20:56:56.261Z,101351.94
2022-11-19T20:59:31.584Z,101342.50
2022-11-19T21:02:04.812Z,101347.78
2022-11-19T21:04:37.810Z,101346.66
2022-11-19T21:07:12.045Z,101341.09
2022-11-19T21:09:44.821Z,101349.09
2022-11-19T21:12:18.015Z,101344.78
2022-11-19T21:14:53.108Z,101345.53
2022-11-19T21:17:26.331Z,101355.16
2022-11-19T21:19:59.039Z,101352.78
2022-11-19T21:22:33.357Z,101347.66
2022-11-19T21:25:12.251Z,101351.19
2022-11-19T21:27:45.736Z,101348.78
2022-11-19T21:30:20.193Z,101349.13
2022-11-19T21:32:53.419Z,101343.69
2022-11-19T21:35:27.062Z,101363.19
2022-11-19T21:38:01.277Z,101368.50
2022-11-19T21:40:38.576Z,101357.44
2022-11-19T21:43:11.399Z,101364.03
2022-11-19T21:45:44.133Z,101362.94
2022-11-19T21:48:18.031Z,101363.44
2022-11-19T21:50:51.199Z,101357.78
2022-11-19T21:53:25.483Z,101366.63
2022-11-19T21:55:58.377Z,101367.09
2022-11-19T21:58:31.525Z,101373.81
2022-11-19T22:01:05.784Z,101360.88
2022-11-19T22:03:38.671Z,101357.69
2022-11-19T22:06:13.203Z,101355.25
2022-11-19T22:08:47.412Z,101351.88
2022-11-19T22:11:32.401Z,101353.34
2022-11-19T22:14:07.391Z,101354.03
2022-11-19T22:16:41.176Z,101350.50
2022-11-19T22:19:15.336Z,101352.88
2022-11-19T22:21:48.142Z,101351.13
2022-11-19T22:24:22.389Z,101345.84
2022-11-19T22:26:55.084Z,101343.59
2022-11-19T22:29:28.304Z,101338.13
2022-11-19T22:32:01.147Z,101335.78
2022-11-19T22:34:34.330Z,101331.47
2022-11-19T22:37:07.940Z,101333.19
2022-11-19T22:39:43.833Z,101330.66
2022-11-19T22:42:16.576Z,101326.97
2022-11-19T22:44:49.485Z,101325.06
2022-11-19T22:47:22.340Z,101327.63
2022-11-19T22:49:55.674Z,101319.13
2022-11-19T22:52:28.393Z,101322.00
2022-11-19T22:55:02.521Z,101316.56
2022-11-19T22:57:35.277Z,101314.06
2022-11-19T23:00:13.079Z,101312.75
2022-11-19T23:02:45.882Z,101312.13
2022-11-19T23:05:18.806Z,101313.88
2022-11-19T23:07:57.337Z,101305.25
2022-11-19T23:10:33.030Z,101315.16
2022-11-19T23:13:32.219Z,101309.25
2022-11-19T23:16:08.077Z,101310.38
2022-11-19T23:18:43.324Z,101303.50
2022-11-19T23:21:18.411Z,101317.59
2022-11-19T23:23:51.484Z,101311.03
2022-11-19T23:26:28.016Z,101315.84
2022-11-19T23:29:00.764Z,101309.13
2022-11-19T23:31:35.409Z,101303.06
2022-11-19T23:34:08.651Z,101313.94
2022-11-19T23:36:42.114Z,101307.06
2022-11-19T23:39:16.897Z,101310.72
2022-11-19T23:41:51.164Z,101307.53
2022-11-19T23:44:23.890Z,101300.81
2022-11-19T23:46:56.778Z,101299.69
2022-11-19T23:49:29.559Z,101299.22
2022-11-19T23:52:02.575Z,101299.72
2022-11-19T23:54:35.191Z,101296.03
2022-11-19T23:57:09.648Z,101293.63
2022-11-19T23:59:43.908Z,101291.56
